Time;durP1;ratioP1;P1;durP2;ratioP2;P2;SDS_P1;SDS_P2;PMS_P1;PMS_P2;Temp;Humidity;BMP_temperature;BMP_pressure;BME280_temperature;BME280_humidity;BME280_pressure;Samples;Min_cycle;Max_cycle;Signal;HPM_P1;HPM_P2
2022/07/13 00:00:39;;;;;;;0.00;0.00;;;24.30;73.40;;;;;;3979549;29;20150;-73
2022/07/13 00:03:01;;;;;;;0.00;0.00;;;24.20;74.10;;;;;;3972623;29;20061;-74
2022/07/13 00:05:24;;;;;;;0.00;0.00;;;24.30;73.40;;;;;;3983251;29;20065;-74
2022/07/13 00:07:45;;;;;;;0.00;0.00;;;24.30;73.40;;;;;;3987600;29;20046;-73
2022/07/13 00:10:08;;;;;;;0.05;0.05;;;24.20;73.50;;;;;;3987079;29;20118;-72
2022/07/13 00:12:31;;;;;;;0.10;0.10;;;24.20;73.60;;;;;;3987178;29;20133;-72
2022/07/13 00:14:53;;;;;;;0.00;0.00;;;24.30;73.70;;;;;;3980004;29;20490;-72
2022/07/13 00:17:15;;;;;;;0.10;0.10;;;24.30;73.70;;;;;;3972393;29;20055;-72
2022/07/13 00:19:37;;;;;;;3.63;1.50;;;24.30;73.70;;;;;;3971807;29;20051;-74
2022/07/13 00:21:59;;;;;;;0.00;0.00;;;24.20;73.60;;;;;;3958582;29;20121;-73
2022/07/13 00:24:21;;;;;;;2.65;1.05;;;24.30;73.60;;;;;;3974133;29;20070;-71
2022/07/13 00:26:43;;;;;;;0.00;0.00;;;24.20;73.60;;;;;;3973238;29;20418;-73
2022/07/13 00:29:07;;;;;;;0.00;0.00;;;24.30;73.70;;;;;;3986748;29;20115;-71
2022/07/13 00:31:29;;;;;;;0.03;0.03;;;24.30;73.70;;;;;;3987079;29;20050;-73
2022/07/13 00:33:52;;;;;;;0.00;0.00;;;24.20;73.60;;;;;;3986774;29;20050;-74
2022/07/13 00:36:14;;;;;;;0.00;0.00;;;24.30;73.70;;;;;;3971993;29;20051;-73
2022/07/13 00:38:36;;;;;;;0.00;0.00;;;24.30;73.70;;;;;;3957989;29;20058;-72
2022/07/13 00:40:58;;;;;;;0.00;0.00;;;24.30;73.70;;;;;;3957533;29;20059;-74
2022/07/13 00:43:20;;;;;;;0.00;0.00;;;24.20;73.60;;;;;;3970325;29;20058;-74
2022/07/13 00:45:44;;;;;;;0.00;0.00;;;24.30;73.70;;;;;;3972387;29;20065;-73
2022/07/13 00:48:07;;;;;;;0.00;0.00;;;24.30;73.70;;;;;;3971694;29;20137;-73
2022/07/13 00:50:29;;;;;;;0.00;0.00;;;24.30;73.60;;;;;;3972080;29;20053;-73
2022/07/13 00:52:52;;;;;;;0.00;0.00;;;24.20;73.60;;;;;;3957537;29;20163;-74
2022/07/13 00:55:15;;;;;;;0.00;0.00;;;24.30;73.70;;;;;;3981602;29;20065;-74
2022/07/13 00:57:38;;;;;;;0.10;0.10;;;24.20;73.70;;;;;;3972645;29;20055;-72
2022/07/13 01:00:03;;;;;;;0.00;0.00;;;24.20;73.70;;;;;;3986883;29;20162;-72
2022/07/13 01:02:26;;;;;;;0.10;0.10;;;24.20;74.60;;;;;;3984665;29;20069;-74
2022/07/13 01:04:48;;;;;;;0.25;0.25;;;24.20;73.70;;;;;;3985661;29;20053;-75
2022/07/13 01:07:10;;;;;;;0.03;0.03;;;24.20;73.80;;;;;;3985899;29;20069;-74
2022/07/13 01:09:33;;;;;;;0.00;0.00;;;24.20;73.70;;;;;;3986625;29;20050;-74
2022/07/13 01:11:55;;;;;;;0.00;0.00;;;24.20;73.70;;;;;;3970875;29;20070;-69
2022/07/13 01:14:17;;;;;;;0.00;0.00;;;24.20;73.80;;;;;;3986812;29;20155;-73
2022/07/13 01:16:40;;;;;;;0.00;0.00;;;24.20;73.90;;;;;;3972236;29;20046;-74
2022/07/13 01:19:05;;;;;;;4.95;1.15;;;24.20;73.80;;;;;;3972555;29;20047;-74
2022/07/13 01:21:28;;;;;;;0.00;0.00;;;24.20;73.90;;;;;;3985927;29;20050;-73
2022/07/13 01:23:52;;;;;;;0.00;0.00;;;24.20;73.90;;;;;;3964134;29;20477;-73
2022/07/13 01:26:15;;;;;;;0.00;0.00;;;24.20;74.00;;;;;;3971140;29;20051;-73
2022/07/13 01:28:37;;;;;;;0.08;0.08;;;24.20;73.90;;;;;;3971396;29;20054;-74
2022/07/13 01:30:59;;;;;;;0.00;0.00;;;24.20;74.00;;;;;;3957340;29;20066;-73
2022/07/13 01:33:21;;;;;;;0.00;0.00;;;24.20;74.00;;;;;;3982171;29;20497;-73
2022/07/13 01:35:43;;;;;;;0.00;0.00;;;24.20;74.00;;;;;;3986174;29;20058;-72
2022/07/13 01:38:05;;;;;;;0.00;0.00;;;24.20;74.00;;;;;;3986474;29;20449;-72
2022/07/13 01:40:31;;;;;;;0.00;0.00;;;24.20;74.10;;;;;;3985791;29;20100;-73
2022/07/13 01:42:54;;;;;;;0.00;0.00;;;24.20;74.00;;;;;;3985672;29;20150;-72
2022/07/13 01:45:18;;;;;;;0.00;0.00;;;24.20;74.00;;;;;;3972333;29;20107;-72
2022/07/13 01:47:42;;;;;;;0.70;0.70;;;24.20;74.10;;;;;;3972623;29;20058;-72
2022/07/13 01:50:05;;;;;;;0.00;0.00;;;24.10;74.10;;;;;;3986152;29;20066;-71
2022/07/13 01:52:27;;;;;;;0.00;0.00;;;24.20;74.10;;;;;;3971786;29;20051;-71
2022/07/13 01:54:49;;;;;;;0.38;0.38;;;24.20;74.10;;;;;;3969654;29;20131;-72
2022/07/13 01:57:13;;;;;;;0.00;0.00;;;24.20;74.20;;;;;;3976776;29;20118;-72
2022/07/13 01:59:35;;;;;;;0.10;0.10;;;24.10;74.10;;;;;;3972218;29;20459;-73
2022/07/13 02:01:57;;;;;;;0.00;0.00;;;24.20;74.20;;;;;;3962058;29;20071;-73
2022/07/13 02:04:19;;;;;;;0.10;0.10;;;24.20;74.10;;;;;;3957682;29;20061;-72
2022/07/13 02:06:42;;;;;;;0.38;0.35;;;24.20;74.20;;;;;;3957325;29;20150;-71
2022/07/13 02:09:04;;;;;;;0.10;0.10;;;24.20;74.10;;;;;;3971302;29;20496;-72
2022/07/13 02:11:26;;;;;;;0.00;0.00;;;24.20;74.30;;;;;;3963085;29;20541;-72
2022/07/13 02:13:49;;;;;;;0.00;0.00;;;24.10;74.10;;;;;;3972631;29;20058;-72
2022/07/13 02:16:12;;;;;;;0.00;0.00;;;24.10;74.10;;;;;;3986740;29;20831;-73
2022/07/13 02:18:35;;;;;;;0.00;0.00;;;24.10;74.10;;;;;;3962553;29;20053;-71
2022/07/13 02:20:57;;;;;;;0.38;0.38;;;24.10;74.00;;;;;;3973047;29;20135;-71
2022/07/13 02:23:21;;;;;;;0.00;0.00;;;24.10;73.90;;;;;;3967467;29;20058;-72
2022/07/13 02:25:43;;;;;;;0.00;0.00;;;24.10;73.90;;;;;;3974430;29;20206;-73
2022/07/13 02:28:07;;;;;;;0.00;0.00;;;24.10;74.00;;;;;;3975024;29;20054;-71
2022/07/13 02:30:31;;;;;;;0.10;0.10;;;24.10;74.10;;;;;;3961249;29;20624;-71
2022/07/13 02:32:53;;;;;;;0.00;0.00;;;24.10;74.10;;;;;;3959783;29;20148;-73
2022/07/13 02:35:15;;;;;;;0.00;0.00;;;24.10;74.20;;;;;;3959588;29;20063;-71
2022/07/13 02:37:38;;;;;;;0.00;0.00;;;24.10;74.30;;;;;;3973773;29;20054;-72
2022/07/13 02:40:00;;;;;;;0.08;0.08;;;24.10;74.30;;;;;;3959431;29;20407;-71
2022/07/13 02:42:22;;;;;;;0.00;0.00;;;24.10;74.40;;;;;;3973235;29;20099;-73
2022/07/13 02:44:44;;;;;;;0.52;0.38;;;24.10;74.50;;;;;;3970091;29;20138;-72
2022/07/13 02:47:07;;;;;;;0.38;0.38;;;24.10;74.50;;;;;;3944831;30;20142;-72
2022/07/13 02:49:29;;;;;;;0.10;0.10;;;24.10;74.60;;;;;;3958152;30;20062;-72
2022/07/13 02:51:51;;;;;;;0.03;0.03;;;24.10;74.50;;;;;;3957258;29;20090;-73
2022/07/13 02:54:13;;;;;;;0.00;0.00;;;24.00;74.50;;;;;;3959437;29;20213;-71
2022/07/13 02:56:35;;;;;;;0.00;0.00;;;24.00;74.60;;;;;;3959754;29;20167;-73
2022/07/13 02:58:58;;;;;;;0.10;0.10;;;24.00;74.50;;;;;;3959776;29;20545;-70
2022/07/13 03:01:20;;;;;;;0.00;0.00;;;24.00;74.60;;;;;;3950428;29;20063;-73
2022/07/13 03:03:44;;;;;;;0.32;0.32;;;24.00;74.60;;;;;;3970197;29;20054;-72
2022/07/13 03:06:08;;;;;;;0.00;0.00;;;24.00;74.60;;;;;;3944232;29;20937;-72
2022/07/13 03:08:31;;;;;;;0.20;0.20;;;24.00;74.60;;;;;;3969593;29;20107;-72
2022/07/13 03:10:53;;;;;;;0.52;0.52;;;24.00;74.50;;;;;;3944285;29;20152;-73
2022/07/13 03:13:15;;;;;;;0.00;0.00;;;24.00;74.50;;;;;;3944312;29;20474;-74
2022/07/13 03:15:37;;;;;;;0.00;0.00;;;24.00;74.60;;;;;;3958057;29;20105;-74
2022/07/13 03:17:59;;;;;;;0.22;0.22;;;24.00;74.60;;;;;;3957928;29;20151;-73
2022/07/13 03:20:23;;;;;;;0.75;0.60;;;24.00;74.60;;;;;;3944362;29;20138;-75
2022/07/13 03:22:47;;;;;;;0.43;0.43;;;24.00;74.80;;;;;;3958388;29;20134;-73
2022/07/13 03:25:11;;;;;;;0.00;0.00;;;24.00;74.50;;;;;;3944101;29;20071;-73
2022/07/13 03:27:39;;;;;;;0.00;0.00;;;24.00;74.50;;;;;;3968963;29;20050;-74
2022/07/13 03:30:02;;;;;;;0.70;0.32;;;24.00;74.50;;;;;;3971595;29;20151;-73
2022/07/13 03:32:26;;;;;;;0.00;0.00;;;24.00;74.40;;;;;;3958461;29;20162;-73
2022/07/13 03:34:48;;;;;;;0.00;0.00;;;24.00;74.40;;;;;;3973596;29;20062;-73
2022/07/13 03:37:15;;;;;;;0.43;0.43;;;24.00;74.30;;;;;;3959431;29;20126;-73
2022/07/13 03:39:39;;;;;;;0.10;0.10;;;24.00;74.40;;;;;;3959249;29;20558;-73
2022/07/13 03:42:02;;;;;;;0.05;0.05;;;24.00;74.40;;;;;;3945766;29;20067;-73
2022/07/13 03:44:24;;;;;;;0.98;0.98;;;24.00;75.30;;;;;;3971444;29;20407;-72
2022/07/13 03:46:46;;;;;;;0.15;0.15;;;24.00;74.40;;;;;;3958420;29;20118;-72
2022/07/13 03:49:10;;;;;;;1.35;0.75;;;23.90;74.30;;;;;;3955821;29;20054;-74
2022/07/13 03:51:32;;;;;;;0.00;0.00;;;23.90;74.30;;;;;;3958400;29;20127;-73
2022/07/13 03:53:56;;;;;;;0.00;0.00;;;23.90;74.30;;;;;;3959225;29;20061;-74
2022/07/13 03:56:19;;;;;;;0.03;0.03;;;23.90;74.30;;;;;;3958276;29;20070;-72
2022/07/13 03:58:41;;;;;;;0.55;0.55;;;23.90;74.30;;;;;;3955713;29;20067;-72
2022/07/13 04:01:05;;;;;;;1.25;1.17;;;23.90;75.20;;;;;;3931177;29;20134;-70
2022/07/13 04:03:28;;;;;;;0.00;0.00;;;23.90;74.30;;;;;;3969167;29;20077;-71
2022/07/13 04:05:50;;;;;;;0.55;0.55;;;23.90;75.20;;;;;;3963815;29;20065;-70
2022/07/13 04:08:13;;;;;;;0.00;0.00;;;23.90;74.30;;;;;;3943731;29;20557;-71
2022/07/13 04:10:38;;;;;;;0.20;0.20;;;23.90;75.20;;;;;;3957025;30;20057;-70
2022/07/13 04:13:00;;;;;;;0.80;0.80;;;23.90;74.30;;;;;;3943552;30;20056;-72
2022/07/13 04:15:26;;;;;;;0.25;0.25;;;23.90;74.30;;;;;;3957176;29;20055;-71
2022/07/13 04:17:49;;;;;;;0.10;0.10;;;23.90;74.20;;;;;;3958639;29;20174;-72
2022/07/13 04:20:12;;;;;;;0.10;0.10;;;23.90;74.20;;;;;;3944588;29;20051;-72
2022/07/13 04:22:39;;;;;;;0.40;0.40;;;23.90;74.20;;;;;;3968314;29;20054;-72
2022/07/13 04:25:00;;;;;;;0.00;0.00;;;23.90;74.30;;;;;;3956709;29;20467;-72
2022/07/13 04:27:25;;;;;;;1.02;0.93;;;23.90;74.20;;;;;;3969035;29;20189;-72
2022/07/13 04:29:46;;;;;;;0.08;0.08;;;23.90;74.30;;;;;;3968433;29;20062;-71
2022/07/13 04:32:09;;;;;;;0.10;0.10;;;23.90;74.30;;;;;;3972191;29;20138;-72
2022/07/13 04:34:31;;;;;;;0.10;0.10;;;23.90;74.30;;;;;;3957983;29;20155;-73
2022/07/13 04:36:55;;;;;;;0.00;0.00;;;23.90;74.30;;;;;;3958086;29;20593;-74
2022/07/13 04:39:19;;;;;;;0.25;0.25;;;23.90;74.30;;;;;;3948772;29;20134;-72
2022/07/13 04:41:41;;;;;;;0.10;0.10;;;23.90;74.30;;;;;;3943645;29;20102;-72
2022/07/13 04:44:05;;;;;;;0.00;0.00;;;23.90;74.30;;;;;;3942935;29;20055;-73
2022/07/13 04:46:28;;;;;;;0.82;0.52;;;23.90;74.30;;;;;;3943406;29;20118;-73
2022/07/13 04:48:51;;;;;;;0.20;0.20;;;23.90;74.30;;;;;;3949716;29;20493;-72
2022/07/13 04:51:13;;;;;;;0.00;0.00;;;23.90;74.30;;;;;;3971691;29;20387;-67
2022/07/13 04:53:40;;;;;;;0.15;0.15;;;23.90;74.30;;;;;;3957316;29;20178;-70
2022/07/13 04:56:06;;;;;;;0.00;0.00;;;23.90;75.30;;;;;;3957593;29;20055;-70
2022/07/13 04:58:28;;;;;;;0.08;0.08;;;24.00;75.50;;;;;;3953944;29;20052;-68
2022/07/13 05:00:51;;;;;;;1.10;1.00;;;23.90;76.10;;;;;;3961438;29;20139;-68
2022/07/13 05:03:34;;;;;;;0.00;0.00;;;23.90;75.00;;;;;;3942272;30;20056;-68
2022/07/13 05:05:56;;;;;;;0.25;0.25;;;24.00;74.80;;;;;;3966393;29;20582;-67
2022/07/13 05:08:19;;;;;;;0.10;0.10;;;24.00;75.50;;;;;;3965352;29;20599;-67
2022/07/13 05:10:41;;;;;;;0.08;0.08;;;24.00;79.00;;;;;;3943546;29;20152;-67
2022/07/13 05:13:03;;;;;;;0.00;0.00;;;24.00;81.20;;;;;;3943018;29;20075;-68
2022/07/13 05:15:46;;;;;;;0.05;0.05;;;24.10;83.20;;;;;;3942267;29;20066;-69
2022/07/13 05:18:10;;;;;;;0.15;0.15;;;24.00;82.60;;;;;;3947809;29;20540;-69
2022/07/13 05:20:32;;;;;;;1.45;1.08;;;24.10;80.40;;;;;;3957579;29;20051;-69
2022/07/13 05:22:54;;;;;;;0.55;0.52;;;24.10;79.80;;;;;;3953838;29;20063;-69
2022/07/13 05:25:21;;;;;;;0.00;0.00;;;24.10;79.30;;;;;;3957425;29;20062;-70
2022/07/13 05:27:43;;;;;;;0.15;0.15;;;24.00;78.20;;;;;;3971107;29;20055;-69
2022/07/13 05:30:06;;;;;;;0.00;0.00;;;24.00;77.70;;;;;;3971138;29;20053;-70
2022/07/13 05:32:27;;;;;;;1.90;1.67;;;24.00;77.30;;;;;;3955518;29;20059;-68
2022/07/13 05:34:51;;;;;;;0.00;0.00;;;24.00;77.00;;;;;;3951013;29;20039;-69
2022/07/13 05:37:14;;;;;;;0.30;0.30;;;24.00;77.00;;;;;;3970057;29;20070;-70
2022/07/13 05:39:36;;;;;;;0.32;0.32;;;24.00;76.90;;;;;;3948824;29;20058;-69
2022/07/13 05:41:59;;;;;;;0.00;0.00;;;24.00;76.80;;;;;;3957197;29;20561;-69
2022/07/13 05:44:21;;;;;;;0.00;0.00;;;24.00;76.60;;;;;;3967968;29;20082;-69
2022/07/13 05:46:44;;;;;;;0.10;0.10;;;24.00;76.70;;;;;;3956711;29;20522;-69
2022/07/13 05:49:06;;;;;;;0.00;0.00;;;23.90;76.70;;;;;;3954208;29;20105;-69
2022/07/13 05:51:30;;;;;;;0.10;0.10;;;24.00;76.60;;;;;;3954137;29;20067;-68
2022/07/13 05:53:56;;;;;;;0.68;0.68;;;24.00;76.60;;;;;;3944643;29;20089;-69
2022/07/13 05:56:19;;;;;;;0.20;0.20;;;24.00;76.50;;;;;;3944064;29;20052;-69
2022/07/13 05:58:41;;;;;;;0.00;0.00;;;24.00;76.40;;;;;;3971036;29;20484;-69
2022/07/13 06:01:03;;;;;;;0.10;0.10;;;23.90;76.20;;;;;;3970874;29;20046;-68
2022/07/13 06:03:26;;;;;;;1.48;1.38;;;23.90;76.10;;;;;;3970853;29;20613;-68
2022/07/13 06:05:48;;;;;;;0.10;0.10;;;23.90;76.10;;;;;;3970905;29;20116;-69
2022/07/13 06:08:12;;;;;;;0.10;0.10;;;23.90;76.10;;;;;;3963286;29;20070;-69
2022/07/13 06:10:34;;;;;;;11.90;1.73;;;23.90;76.30;;;;;;3956021;29;20141;-69
2022/07/13 06:12:56;;;;;;;0.00;0.00;;;23.90;76.50;;;;;;3954590;29;20523;-69
2022/07/13 06:15:18;;;;;;;0.25;0.25;;;23.90;76.60;;;;;;3956359;29;20142;-68
2022/07/13 06:17:41;;;;;;;12.85;1.05;;;23.90;76.60;;;;;;3967872;29;20069;-68
2022/07/13 06:20:05;;;;;;;1.27;1.17;;;23.90;76.70;;;;;;3968376;29;20084;-69
2022/07/13 06:22:28;;;;;;;0.20;0.20;;;23.90;77.00;;;;;;3963519;29;20124;-68
2022/07/13 06:24:51;;;;;;;0.00;0.00;;;23.90;77.00;;;;;;3968909;29;20066;-70
2022/07/13 06:27:13;;;;;;;0.08;0.08;;;23.90;77.80;;;;;;3970916;29;20082;-70
2022/07/13 06:29:36;;;;;;;0.28;0.28;;;23.90;77.00;;;;;;3968645;29;20062;-70
2022/07/13 06:31:58;;;;;;;1.27;1.17;;;23.90;77.20;;;;;;3968003;29;20058;-70
2022/07/13 06:34:20;;;;;;;0.00;0.00;;;23.90;77.20;;;;;;3968513;29;20151;-70
2022/07/13 06:36:42;;;;;;;1.58;1.48;;;23.90;77.10;;;;;;3949462;29;20067;-69
2022/07/13 06:39:04;;;;;;;0.95;0.95;;;23.90;77.10;;;;;;3963553;29;20055;-69
2022/07/13 06:41:28;;;;;;;0.20;0.20;;;23.90;77.10;;;;;;3968205;29;20495;-69
2022/07/13 06:43:50;;;;;;;0.22;0.22;;;23.90;77.10;;;;;;3968064;29;20146;-69
2022/07/13 06:46:12;;;;;;;0.00;0.00;;;23.90;77.00;;;;;;3966454;29;20498;-69
2022/07/13 06:48:36;;;;;;;0.38;0.38;;;23.90;76.90;;;;;;3967934;29;20058;-70
2022/07/13 06:50:58;;;;;;;0.00;0.00;;;23.90;76.80;;;;;;3953656;29;20690;-69
2022/07/13 06:53:20;;;;;;;0.20;0.20;;;23.90;76.70;;;;;;3967559;29;20078;-69
2022/07/13 06:55:42;;;;;;;0.20;0.20;;;23.90;76.70;;;;;;3967825;29;20371;-67
2022/07/13 06:58:05;;;;;;;0.00;0.00;;;23.90;76.80;;;;;;3967881;29;20073;-68
2022/07/13 07:00:27;;;;;;;0.00;0.00;;;23.90;76.70;;;;;;3957771;29;20120;-68
2022/07/13 07:02:50;;;;;;;0.38;0.38;;;24.00;76.70;;;;;;3967926;29;20063;-68
2022/07/13 07:05:12;;;;;;;0.10;0.10;;;24.00;76.60;;;;;;3957042;29;20843;-68
2022/07/13 07:07:34;;;;;;;0.20;0.20;;;24.00;76.50;;;;;;3963757;29;20059;-68
2022/07/13 07:09:56;;;;;;;0.00;0.00;;;24.10;76.30;;;;;;3968271;29;20050;-68
2022/07/13 07:12:18;;;;;;;0.10;0.10;;;24.10;76.10;;;;;;3959560;29;20202;-68
2022/07/13 07:14:42;;;;;;;0.00;0.00;;;24.20;75.70;;;;;;3970632;29;20059;-69
2022/07/13 07:17:04;;;;;;;0.00;0.00;;;24.30;75.50;;;;;;3970449;29;20065;-72
2022/07/13 07:19:26;;;;;;;0.00;0.00;;;24.40;75.20;;;;;;3970741;29;20058;-72
2022/07/13 07:21:48;;;;;;;0.10;0.10;;;24.40;74.80;;;;;;3970393;29;20148;-71
2022/07/13 07:24:11;;;;;;;0.00;0.00;;;24.50;74.60;;;;;;3956765;29;20059;-71
2022/07/13 07:26:32;;;;;;;0.65;0.65;;;24.50;74.30;;;;;;3970426;29;20063;-72
2022/07/13 07:28:54;;;;;;;0.00;0.00;;;24.60;74.20;;;;;;3956514;29;20141;-72
2022/07/13 07:31:17;;;;;;;0.38;0.38;;;24.70;74.00;;;;;;3962462;29;20066;-70
2022/07/13 07:33:40;;;;;;;0.65;0.65;;;24.70;73.80;;;;;;3970054;29;20066;-72
2022/07/13 07:36:02;;;;;;;0.45;0.22;;;24.80;73.60;;;;;;3969899;29;20061;-70
2022/07/13 07:38:24;;;;;;;0.10;0.10;;;24.80;73.40;;;;;;3964139;29;20055;-73
2022/07/13 07:40:46;;;;;;;0.13;0.13;;;24.90;73.20;;;;;;3970200;29;20408;-70
2022/07/13 07:43:09;;;;;;;0.10;0.10;;;24.90;73.10;;;;;;3963604;29;20071;-72
2022/07/13 07:45:31;;;;;;;0.00;0.00;;;25.00;72.90;;;;;;3954343;29;20104;-72
2022/07/13 07:47:55;;;;;;;0.00;0.00;;;25.00;72.70;;;;;;3970175;29;20092;-71
2022/07/13 07:50:17;;;;;;;0.00;0.00;;;25.00;72.60;;;;;;3969922;29;20575;-71
2022/07/13 07:52:39;;;;;;;7.47;1.70;;;25.10;72.60;;;;;;3970375;29;20240;-71
2022/07/13 07:55:17;;;;;;;0.10;0.10;;;25.10;72.50;;;;;;3970225;29;20047;-72
2022/07/13 07:57:46;;;;;;;0.00;0.00;;;25.10;72.20;;;;;;3966862;29;20055;-72
2022/07/13 08:00:09;;;;;;;0.55;0.55;;;25.20;72.40;;;;;;3969572;29;20065;-71
2022/07/13 08:02:32;;;;;;;0.10;0.10;;;25.20;72.30;;;;;;3962948;29;20058;-69
2022/07/13 08:04:56;;;;;;;1.45;1.17;;;25.20;72.20;;;;;;3970161;29;20069;-69
2022/07/13 08:07:18;;;;;;;0.00;0.00;;;25.20;72.10;;;;;;3964169;29;20082;-65
2022/07/13 08:09:41;;;;;;;0.10;0.10;;;25.30;72.40;;;;;;3972481;29;20074;-55
2022/07/13 08:12:04;;;;;;;0.00;0.00;;;25.30;73.50;;;;;;3971783;29;20059;-65
2022/07/13 08:14:26;;;;;;;0.28;0.28;;;25.30;73.50;;;;;;3948303;29;20051;-65
2022/07/13 08:16:48;;;;;;;0.10;0.10;;;25.30;73.00;;;;;;3956955;29;20151;-65
2022/07/13 08:19:10;;;;;;;2.13;0.80;;;25.40;73.00;;;;;;3957698;29;20500;-65
2022/07/13 08:21:53;;;;;;;0.00;0.00;;;25.40;72.80;;;;;;3957309;29;20388;-64
2022/07/13 08:24:16;;;;;;;0.55;0.55;;;25.40;72.50;;;;;;3957028;29;20062;-64
2022/07/13 08:26:38;;;;;;;0.43;0.43;;;25.40;72.40;;;;;;3944042;29;20574;-65
2022/07/13 08:29:00;;;;;;;0.00;0.00;;;25.50;72.50;;;;;;3957188;29;20067;-65
2022/07/13 08:31:23;;;;;;;0.15;0.15;;;25.50;72.20;;;;;;3957384;29;20415;-64
2022/07/13 08:39:06;;;;;;;0.00;0.00;;;25.50;72.00;;;;;;3957191;29;20062;-64
2022/07/13 08:41:28;;;;;;;0.20;0.20;;;25.50;72.70;;;;;;3956664;29;20155;-65
2022/07/13 08:43:49;;;;;;;3.60;1.48;;;25.60;71.80;;;;;;3955258;29;20055;-65
2022/07/13 08:46:12;;;;;;;0.15;0.15;;;25.60;71.90;;;;;;3956884;29;20116;-65
2022/07/13 08:48:38;;;;;;;0.28;0.28;;;25.60;72.50;;;;;;3957157;29;20104;-65
2022/07/13 08:51:01;;;;;;;2.83;0.55;;;25.60;71.60;;;;;;3956689;29;20143;-65
2022/07/13 08:53:23;;;;;;;0.00;0.00;;;25.60;71.50;;;;;;3957428;29;20549;-65
2022/07/13 08:55:47;;;;;;;0.45;0.45;;;25.60;72.30;;;;;;3956826;29;20646;-65
2022/07/13 08:58:12;;;;;;;0.90;0.75;;;25.70;71.40;;;;;;3956946;29;20123;-64
2022/07/13 09:00:34;;;;;;;0.30;0.30;;;25.70;71.30;;;;;;3943507;29;20051;-64
2022/07/13 09:02:57;;;;;;;0.30;0.30;;;25.70;71.20;;;;;;3956663;29;20055;-65
2022/07/13 09:05:21;;;;;;;0.75;0.75;;;25.70;71.10;;;;;;3957130;29;20055;-65
2022/07/13 09:08:01;;;;;;;0.52;0.52;;;25.80;71.10;;;;;;3956759;29;20456;-64
2022/07/13 09:10:23;;;;;;;0.00;0.00;;;25.80;70.90;;;;;;3943261;29;20713;-65
2022/07/13 09:12:46;;;;;;;0.00;0.00;;;25.80;70.80;;;;;;3956426;29;20062;-64
2022/07/13 09:15:10;;;;;;;0.00;0.00;;;25.80;70.70;;;;;;3956403;29;20527;-65
2022/07/13 09:17:34;;;;;;;0.20;0.10;;;25.90;70.70;;;;;;3956354;29;20055;-65
2022/07/13 09:19:57;;;;;;;0.00;0.00;;;25.90;70.50;;;;;;3956517;29;20070;-65
2022/07/13 09:22:19;;;;;;;0.20;0.20;;;25.90;70.40;;;;;;3956408;29;20055;-65
2022/07/13 09:24:44;;;;;;;0.63;0.52;;;25.90;70.30;;;;;;3943189;29;20507;-65
2022/07/13 09:27:07;;;;;;;0.50;0.50;;;25.90;70.20;;;;;;3955897;29;20138;-65
2022/07/13 09:29:30;;;;;;;3.33;0.43;;;25.90;70.00;;;;;;3956456;29;20062;-65
2022/07/13 09:31:55;;;;;;;0.00;0.00;;;25.90;69.80;;;;;;3951931;29;20534;-64
2022/07/13 09:34:18;;;;;;;0.55;0.40;;;26.00;69.80;;;;;;3956505;29;20058;-65
2022/07/13 09:36:40;;;;;;;0.25;0.25;;;26.00;70.60;;;;;;3956217;29;20062;-64
2022/07/13 09:39:09;;;;;;;0.00;0.00;;;26.00;70.40;;;;;;3956313;29;20043;-65
2022/07/13 09:41:32;;;;;;;0.00;0.00;;;26.00;69.40;;;;;;3956142;29;20428;-65
2022/07/13 09:46:55;;;;;;;0.17;0.17;;;26.10;69.20;;;;;;3956247;29;20072;-65
2022/07/13 09:49:17;;;;;;;0.00;0.00;;;26.10;69.00;;;;;;3955970;29;20066;-65
2022/07/13 09:51:40;;;;;;;0.00;0.00;;;26.10;68.90;;;;;;3956497;29;20114;-65
2022/07/13 09:54:03;;;;;;;0.20;0.20;;;26.20;68.70;;;;;;3938517;29;20473;-65
2022/07/13 09:56:27;;;;;;;0.00;0.00;;;26.20;68.50;;;;;;3956026;29;20051;-65
2022/07/13 09:58:50;;;;;;;0.00;0.00;;;26.20;68.30;;;;;;3956178;29;20055;-65
2022/07/13 10:01:13;;;;;;;0.00;0.00;;;26.20;68.00;;;;;;3955997;29;20135;-66
2022/07/13 10:03:37;;;;;;;1.88;1.40;;;26.20;67.50;;;;;;3967575;29;20055;-65
2022/07/13 10:06:06;;;;;;;0.40;0.40;;;26.20;67.50;;;;;;3959123;29;20069;-66
2022/07/13 10:08:28;;;;;;;1.35;0.88;;;26.30;67.80;;;;;;3971030;29;20055;-65
2022/07/13 10:10:52;;;;;;;0.10;0.10;;;26.30;67.50;;;;;;3971022;29;20457;-65
2022/07/13 10:13:15;;;;;;;0.55;0.55;;;26.30;67.60;;;;;;3970673;29;20054;-66
2022/07/13 10:15:37;;;;;;;0.00;0.00;;;26.30;67.40;;;;;;3957144;29;20067;-66
2022/07/13 10:18:02;;;;;;;0.00;0.00;;;26.40;67.30;;;;;;3947577;29;20436;-67
2022/07/13 10:20:27;;;;;;;0.00;0.00;;;26.40;67.20;;;;;;3955979;29;20141;-67
2022/07/13 10:22:52;;;;;;;0.00;0.00;;;26.40;66.90;;;;;;3962195;29;20066;-66
2022/07/13 10:25:16;;;;;;;0.00;0.00;;;26.40;66.80;;;;;;3962300;29;20123;-66
2022/07/13 10:27:41;;;;;;;0.00;0.00;;;26.40;66.80;;;;;;3964059;29;20488;-66
2022/07/13 10:30:05;;;;;;;0.43;0.43;;;26.50;66.70;;;;;;3965484;29;20132;-66
2022/07/13 10:32:29;;;;;;;0.03;0.03;;;26.50;66.60;;;;;;3955518;30;20057;-66
2022/07/13 10:34:53;;;;;;;0.25;0.25;;;26.50;66.50;;;;;;3956316;29;20076;-66
2022/07/13 10:37:17;;;;;;;0.00;0.00;;;26.40;66.20;;;;;;3958650;29;20604;-67
2022/07/13 10:39:39;;;;;;;1.63;0.98;;;26.50;66.20;;;;;;3959221;29;20074;-67
2022/07/13 10:42:03;;;;;;;0.60;0.60;;;26.50;66.20;;;;;;3959271;29;20047;-67
2022/07/13 10:44:35;;;;;;;0.40;0.40;;;26.50;66.10;;;;;;3967171;29;20059;-67
2022/07/13 10:46:57;;;;;;;0.00;0.00;;;26.50;66.00;;;;;;3974550;29;20145;-68
2022/07/13 10:49:41;;;;;;;0.77;0.77;;;26.50;66.10;;;;;;3978375;29;20061;-68
2022/07/13 10:52:51;;;;;;;0.08;0.08;;;26.50;65.90;;;;;;3988667;29;20830;-68
2022/07/13 10:55:35;;;;;;;0.10;0.10;;;26.60;65.90;;;;;;3988049;29;20078;-67
2022/07/13 10:57:58;;;;;;;0.00;0.00;;;26.60;65.80;;;;;;3988327;29;20111;-67
2022/07/13 11:00:37;;;;;;;0.00;0.00;;;26.60;65.70;;;;;;3984926;29;20078;-67
2022/07/13 11:03:03;;;;;;;0.00;0.00;;;26.60;65.60;;;;;;3975069;29;20497;-67
2022/07/13 11:05:29;;;;;;;0.00;0.00;;;26.60;65.50;;;;;;3975270;29;20066;-68
2022/07/13 11:07:52;;;;;;;0.43;0.30;;;26.60;65.30;;;;;;3973066;29;20124;-68
2022/07/13 11:10:19;;;;;;;0.40;0.40;;;26.60;65.30;;;;;;3978334;29;20066;-68
2022/07/13 11:12:58;;;;;;;0.00;0.00;;;26.60;65.20;;;;;;3972758;29;20103;-67
2022/07/13 11:15:20;;;;;;;0.10;0.10;;;26.70;65.20;;;;;;3972988;29;20485;-68
2022/07/13 11:17:51;;;;;;;0.00;0.00;;;26.70;65.10;;;;;;3958749;29;20604;-68
2022/07/13 11:20:13;;;;;;;0.00;0.00;;;26.70;65.00;;;;;;3973735;29;20054;-67
2022/07/13 11:25:39;;;;;;;0.25;0.25;;;26.70;64.70;;;;;;3919967;30;20398;-68
2022/07/13 11:28:20;;;;;;;0.20;0.20;;;26.70;64.80;;;;;;3926060;30;20272;-67
2022/07/13 11:30:45;;;;;;;0.10;0.10;;;26.70;64.70;;;;;;3955580;29;20111;-67
2022/07/13 11:33:12;;;;;;;0.32;0.17;;;26.70;64.10;;;;;;3971789;29;20062;-67
2022/07/13 11:35:34;;;;;;;0.00;0.00;;;26.80;64.60;;;;;;3967770;29;20175;-67
2022/07/13 11:37:57;;;;;;;0.00;0.00;;;26.80;64.30;;;;;;3987012;29;20099;-67
2022/07/13 11:40:30;;;;;;;0.13;0.13;;;26.70;64.30;;;;;;3987104;29;20131;-67
2022/07/13 11:42:53;;;;;;;0.10;0.10;;;26.80;63.50;;;;;;3987162;29;20499;-67
2022/07/13 11:45:26;;;;;;;0.30;0.30;;;26.80;64.90;;;;;;3980823;29;20092;-68
2022/07/13 11:47:48;;;;;;;0.20;0.20;;;26.80;63.60;;;;;;3958078;29;20058;-68
2022/07/13 11:50:11;;;;;;;0.15;0.15;;;26.80;63.60;;;;;;3972320;29;20101;-68
2022/07/13 11:52:33;;;;;;;2.20;0.15;;;26.80;63.40;;;;;;3972465;29;20619;-68
2022/07/13 11:54:57;;;;;;;0.00;0.00;;;26.80;63.30;;;;;;3975100;29;20086;-67
2022/07/13 11:57:20;;;;;;;0.05;0.05;;;26.70;63.60;;;;;;3985843;29;20064;-67
2022/07/13 11:59:44;;;;;;;0.00;0.00;;;26.80;63.70;;;;;;3978416;29;20134;-68
2022/07/13 12:02:09;;;;;;;0.00;0.00;;;26.80;63.70;;;;;;3972911;29;20067;-68
2022/07/13 12:04:32;;;;;;;0.00;0.00;;;26.80;63.90;;;;;;3972161;29;20058;-68
2022/07/13 12:07:10;;;;;;;0.00;0.00;;;26.80;63.40;;;;;;3971956;29;20051;-68
2022/07/13 12:09:32;;;;;;;0.57;0.50;;;26.70;63.60;;;;;;3978196;29;20058;-68
2022/07/13 12:11:56;;;;;;;0.00;0.00;;;26.80;63.80;;;;;;3958125;29;20108;-68
2022/07/13 12:14:19;;;;;;;0.80;0.80;;;26.80;64.00;;;;;;3972133;29;20482;-67
2022/07/13 12:16:40;;;;;;;0.15;0.15;;;26.80;63.90;;;;;;3971489;29;20499;-68
2022/07/13 12:19:08;;;;;;;0.00;0.00;;;26.80;64.00;;;;;;3972824;29;20483;-66
2022/07/13 12:21:30;;;;;;;0.10;0.10;;;26.80;64.00;;;;;;3971655;29;20058;-66
2022/07/13 12:23:52;;;;;;;0.08;0.08;;;26.80;64.00;;;;;;3971966;29;20054;-66
2022/07/13 12:26:14;;;;;;;0.10;0.10;;;26.80;63.90;;;;;;3977096;29;20062;-66
2022/07/13 12:28:44;;;;;;;0.00;0.00;;;26.80;64.70;;;;;;3981322;29;20082;-66
2022/07/13 12:31:07;;;;;;;0.00;0.00;;;26.80;63.90;;;;;;3971542;29;20692;-68
2022/07/13 12:33:45;;;;;;;0.20;0.20;;;26.80;64.10;;;;;;3979332;29;20140;-68
2022/07/13 12:36:08;;;;;;;0.00;0.00;;;26.80;64.10;;;;;;3986755;29;20050;-68
2022/07/13 12:38:31;;;;;;;0.00;0.00;;;26.80;64.20;;;;;;3974145;29;20058;-68
2022/07/13 12:40:55;;;;;;;0.15;0.15;;;26.80;64.20;;;;;;3971911;29;20492;-68